sensor_id;sensor_type;location;lat;lon;timestamp;temperature;humidity
28608;DHT22;15802;45.654;13.804;2023-04-25T00:00:08;11.30;99.90
28608;DHT22;15802;45.654;13.804;2023-04-25T00:02:34;11.30;99.90
28608;DHT22;15802;45.654;13.804;2023-04-25T00:05:01;11.30;99.90
28608;DHT22;15802;45.654;13.804;2023-04-25T00:07:27;11.30;99.90
28608;DHT22;15802;45.654;13.804;2023-04-25T00:09:52;11.30;99.90
28608;DHT22;15802;45.654;13.804;2023-04-25T00:12:18;11.30;99.90
28608;DHT22;15802;45.654;13.804;2023-04-25T00:14:46;11.30;99.90
28608;DHT22;15802;45.654;13.804;2023-04-25T00:17:12;11.30;99.90
28608;DHT22;15802;45.654;13.804;2023-04-25T00:19:38;11.20;99.90
28608;DHT22;15802;45.654;13.804;2023-04-25T00:22:03;11.20;99.90
28608;DHT22;15802;45.654;13.804;2023-04-25T00:24:30;11.10;99.90
28608;DHT22;15802;45.654;13.804;2023-04-25T00:26:56;11.10;99.90
28608;DHT22;15802;45.654;13.804;2023-04-25T00:29:22;11.10;99.90
28608;DHT22;15802;45.654;13.804;2023-04-25T00:31:47;11.10;99.90
28608;DHT22;15802;45.654;13.804;2023-04-25T00:34:13;11.00;99.90
28608;DHT22;15802;45.654;13.804;2023-04-25T00:36:39;10.90;99.90
28608;DHT22;15802;45.654;13.804;2023-04-25T00:39:15;10.90;99.90
28608;DHT22;15802;45.654;13.804;2023-04-25T00:41:41;11.10;99.90
28608;DHT22;15802;45.654;13.804;2023-04-25T00:44:08;11.00;99.90
28608;DHT22;15802;45.654;13.804;2023-04-25T00:46:34;11.10;99.90
28608;DHT22;15802;45.654;13.804;2023-04-25T00:49:01;11.00;99.90
28608;DHT22;15802;45.654;13.804;2023-04-25T00:51:26;11.00;99.90
28608;DHT22;15802;45.654;13.804;2023-04-25T00:53:52;11.00;99.90
28608;DHT22;15802;45.654;13.804;2023-04-25T00:56:18;11.00;99.90
28608;DHT22;15802;45.654;13.804;2023-04-25T00:58:45;10.90;99.90
28608;DHT22;15802;45.654;13.804;2023-04-25T01:01:11;10.80;99.90
28608;DHT22;15802;45.654;13.804;2023-04-25T01:03:37;10.70;99.90
28608;DHT22;15802;45.654;13.804;2023-04-25T01:06:07;10.70;99.90
28608;DHT22;15802;45.654;13.804;2023-04-25T01:08:33;10.60;99.90
28608;DHT22;15802;45.654;13.804;2023-04-25T01:10:59;10.60;99.90
28608;DHT22;15802;45.654;13.804;2023-04-25T01:13:25;10.60;99.90
28608;DHT22;15802;45.654;13.804;2023-04-25T01:15:50;10.60;99.90
28608;DHT22;15802;45.654;13.804;2023-04-25T01:18:16;10.70;99.90
28608;DHT22;15802;45.654;13.804;2023-04-25T01:20:42;10.70;99.90
28608;DHT22;15802;45.654;13.804;2023-04-25T01:23:08;10.70;99.90
28608;DHT22;15802;45.654;13.804;2023-04-25T01:25:37;10.80;99.90
28608;DHT22;15802;45.654;13.804;2023-04-25T01:28:03;10.70;99.90
28608;DHT22;15802;45.654;13.804;2023-04-25T01:30:35;10.70;99.90
28608;DHT22;15802;45.654;13.804;2023-04-25T01:33:01;10.70;99.90
28608;DHT22;15802;45.654;13.804;2023-04-25T01:35:29;10.60;99.90
28608;DHT22;15802;45.654;13.804;2023-04-25T01:37:55;10.60;99.90
28608;DHT22;15802;45.654;13.804;2023-04-25T01:40:21;10.60;99.90
28608;DHT22;15802;45.654;13.804;2023-04-25T01:42:48;10.50;99.90
28608;DHT22;15802;45.654;13.804;2023-04-25T01:45:14;10.40;99.90
28608;DHT22;15802;45.654;13.804;2023-04-25T01:47:41;10.40;99.90
28608;DHT22;15802;45.654;13.804;2023-04-25T01:50:09;10.40;99.90
28608;DHT22;15802;45.654;13.804;2023-04-25T01:52:35;10.50;99.90
28608;DHT22;15802;45.654;13.804;2023-04-25T01:55:01;10.50;99.90
28608;DHT22;15802;45.654;13.804;2023-04-25T01:57:26;10.40;99.90
28608;DHT22;15802;45.654;13.804;2023-04-25T01:59:54;10.40;99.90
28608;DHT22;15802;45.654;13.804;2023-04-25T02:02:25;10.50;99.90
28608;DHT22;15802;45.654;13.804;2023-04-25T02:04:51;10.50;99.90
28608;DHT22;15802;45.654;13.804;2023-04-25T02:07:17;10.50;99.90
28608;DHT22;15802;45.654;13.804;2023-04-25T02:09:43;10.50;99.90
28608;DHT22;15802;45.654;13.804;2023-04-25T02:12:09;10.40;99.90
28608;DHT22;15802;45.654;13.804;2023-04-25T02:14:35;10.40;99.90
28608;DHT22;15802;45.654;13.804;2023-04-25T02:17:01;10.30;99.90
28608;DHT22;15802;45.654;13.804;2023-04-25T02:19:27;10.30;99.90
28608;DHT22;15802;45.654;13.804;2023-04-25T02:21:55;10.20;99.90
28608;DHT22;15802;45.654;13.804;2023-04-25T02:24:22;10.10;99.90
28608;DHT22;15802;45.654;13.804;2023-04-25T02:26:48;10.10;99.90
28608;DHT22;15802;45.654;13.804;2023-04-25T02:29:15;10.10;99.90
28608;DHT22;15802;45.654;13.804;2023-04-25T02:31:40;10.20;99.90
28608;DHT22;15802;45.654;13.804;2023-04-25T02:34:06;10.30;99.90
28608;DHT22;15802;45.654;13.804;2023-04-25T02:36:32;10.40;99.90
28608;DHT22;15802;45.654;13.804;2023-04-25T02:39:00;10.40;99.90
28608;DHT22;15802;45.654;13.804;2023-04-25T02:41:26;10.40;99.90
28608;DHT22;15802;45.654;13.804;2023-04-25T02:43:51;10.40;99.90
28608;DHT22;15802;45.654;13.804;2023-04-25T02:46:17;10.50;99.90
28608;DHT22;15802;45.654;13.804;2023-04-25T02:48:43;10.40;99.90
28608;DHT22;15802;45.654;13.804;2023-04-25T02:51:09;10.40;99.90
28608;DHT22;15802;45.654;13.804;2023-04-25T02:53:34;10.30;99.90
28608;DHT22;15802;45.654;13.804;2023-04-25T02:56:00;10.30;99.90
28608;DHT22;15802;45.654;13.804;2023-04-25T02:58:26;10.30;99.90
28608;DHT22;15802;45.654;13.804;2023-04-25T03:00:52;10.30;99.90
28608;DHT22;15802;45.654;13.804;2023-04-25T03:03:18;10.30;99.90
28608;DHT22;15802;45.654;13.804;2023-04-25T03:05:48;10.30;99.90
28608;DHT22;15802;45.654;13.804;2023-04-25T03:08:13;10.30;99.90
28608;DHT22;15802;45.654;13.804;2023-04-25T03:10:39;10.30;99.90
28608;DHT22;15802;45.654;13.804;2023-04-25T03:13:05;10.30;99.90
28608;DHT22;15802;45.654;13.804;2023-04-25T03:15:30;10.20;99.90
28608;DHT22;15802;45.654;13.804;2023-04-25T03:17:56;10.30;99.90
28608;DHT22;15802;45.654;13.804;2023-04-25T03:20:22;10.20;99.90
28608;DHT22;15802;45.654;13.804;2023-04-25T03:22:47;10.20;99.90
28608;DHT22;15802;45.654;13.804;2023-04-25T03:25:13;10.20;99.90
28608;DHT22;15802;45.654;13.804;2023-04-25T03:27:39;10.10;99.90
28608;DHT22;15802;45.654;13.804;2023-04-25T03:30:05;10.10;99.90
28608;DHT22;15802;45.654;13.804;2023-04-25T03:32:30;10.10;99.90
28608;DHT22;15802;45.654;13.804;2023-04-25T03:34:56;10.10;99.90
28608;DHT22;15802;45.654;13.804;2023-04-25T03:37:22;10.10;99.90
28608;DHT22;15802;45.654;13.804;2023-04-25T03:39:47;10.00;99.90
28608;DHT22;15802;45.654;13.804;2023-04-25T03:42:13;10.00;99.90
28608;DHT22;15802;45.654;13.804;2023-04-25T03:44:39;9.90;99.90
28608;DHT22;15802;45.654;13.804;2023-04-25T03:47:05;9.90;99.90
28608;DHT22;15802;45.654;13.804;2023-04-25T03:49:32;9.80;99.90
28608;DHT22;15802;45.654;13.804;2023-04-25T03:51:57;9.80;99.90
28608;DHT22;15802;45.654;13.804;2023-04-25T03:54:23;9.80;99.90
28608;DHT22;15802;45.654;13.804;2023-04-25T03:56:49;9.70;99.90
28608;DHT22;15802;45.654;13.804;2023-04-25T03:59:15;9.80;99.90
28608;DHT22;15802;45.654;13.804;2023-04-25T04:01:40;9.70;99.90
28608;DHT22;15802;45.654;13.804;2023-04-25T04:04:06;9.60;99.90
28608;DHT22;15802;45.654;13.804;2023-04-25T04:06:31;9.60;99.90
28608;DHT22;15802;45.654;13.804;2023-04-25T04:08:57;9.60;99.90
28608;DHT22;15802;45.654;13.804;2023-04-25T04:11:23;9.60;99.90
28608;DHT22;15802;45.654;13.804;2023-04-25T04:13:49;9.60;99.90
28608;DHT22;15802;45.654;13.804;2023-04-25T04:16:15;9.60;99.90
28608;DHT22;15802;45.654;13.804;2023-04-25T04:18:41;9.70;99.90
28608;DHT22;15802;45.654;13.804;2023-04-25T04:21:09;9.70;99.90
28608;DHT22;15802;45.654;13.804;2023-04-25T04:23:35;9.80;99.90
28608;DHT22;15802;45.654;13.804;2023-04-25T04:26:01;9.80;99.90
28608;DHT22;15802;45.654;13.804;2023-04-25T04:28:27;9.90;99.90
28608;DHT22;15802;45.654;13.804;2023-04-25T04:30:53;10.00;99.90
28608;DHT22;15802;45.654;13.804;2023-04-25T04:33:18;10.10;99.90
28608;DHT22;15802;45.654;13.804;2023-04-25T04:35:45;10.20;99.90
28608;DHT22;15802;45.654;13.804;2023-04-25T04:38:12;10.40;99.90
28608;DHT22;15802;45.654;13.804;2023-04-25T04:40:40;10.60;99.90
28608;DHT22;15802;45.654;13.804;2023-04-25T04:43:07;10.90;99.90
28608;DHT22;15802;45.654;13.804;2023-04-25T04:45:35;11.40;99.90
28608;DHT22;15802;45.654;13.804;2023-04-25T04:48:01;11.70;99.90
28608;DHT22;15802;45.654;13.804;2023-04-25T04:50:27;11.90;99.90
28608;DHT22;15802;45.654;13.804;2023-04-25T04:52:53;12.00;99.90
28608;DHT22;15802;45.654;13.804;2023-04-25T04:55:20;12.10;99.90
28608;DHT22;15802;45.654;13.804;2023-04-25T04:57:46;12.10;99.90
28608;DHT22;15802;45.654;13.804;2023-04-25T05:00:11;12.20;99.90
28608;DHT22;15802;45.654;13.804;2023-04-25T05:02:38;12.20;99.90
28608;DHT22;15802;45.654;13.804;2023-04-25T05:05:04;12.20;99.90
28608;DHT22;15802;45.654;13.804;2023-04-25T05:07:30;12.20;99.90
28608;DHT22;15802;45.654;13.804;2023-04-25T05:09:56;12.20;99.90
28608;DHT22;15802;45.654;13.804;2023-04-25T05:12:21;12.30;99.90
28608;DHT22;15802;45.654;13.804;2023-04-25T05:14:50;12.30;99.90
28608;DHT22;15802;45.654;13.804;2023-04-25T05:17:15;12.30;99.90
28608;DHT22;15802;45.654;13.804;2023-04-25T05:19:41;12.40;99.90
28608;DHT22;15802;45.654;13.804;2023-04-25T05:22:07;12.50;99.90
28608;DHT22;15802;45.654;13.804;2023-04-25T05:24:35;12.70;99.90
28608;DHT22;15802;45.654;13.804;2023-04-25T05:27:01;12.80;99.90
28608;DHT22;15802;45.654;13.804;2023-04-25T05:29:27;12.90;99.90
28608;DHT22;15802;45.654;13.804;2023-04-25T05:31:53;13.00;99.90
28608;DHT22;15802;45.654;13.804;2023-04-25T05:34:19;13.10;99.90
28608;DHT22;15802;45.654;13.804;2023-04-25T05:36:44;13.10;99.90
28608;DHT22;15802;45.654;13.804;2023-04-25T05:39:15;13.20;99.90
28608;DHT22;15802;45.654;13.804;2023-04-25T05:41:40;13.20;99.90
28608;DHT22;15802;45.654;13.804;2023-04-25T05:44:06;13.30;99.90
28608;DHT22;15802;45.654;13.804;2023-04-25T05:46:32;13.20;99.90
28608;DHT22;15802;45.654;13.804;2023-04-25T05:48:57;13.30;99.90
28608;DHT22;15802;45.654;13.804;2023-04-25T05:51:23;13.40;99.90
28608;DHT22;15802;45.654;13.804;2023-04-25T05:53:49;13.50;99.90
28608;DHT22;15802;45.654;13.804;2023-04-25T05:56:14;13.60;99.90
28608;DHT22;15802;45.654;13.804;2023-04-25T05:58:40;13.70;99.90
28608;DHT22;15802;45.654;13.804;2023-04-25T06:01:06;13.80;99.90
28608;DHT22;15802;45.654;13.804;2023-04-25T06:03:32;13.80;99.90
28608;DHT22;15802;45.654;13.804;2023-04-25T06:05:57;13.80;99.90
28608;DHT22;15802;45.654;13.804;2023-04-25T06:08:23;13.80;99.90
28608;DHT22;15802;45.654;13.804;2023-04-25T06:10:49;13.70;99.90
28608;DHT22;15802;45.654;13.804;2023-04-25T06:13:15;13.70;99.90
28608;DHT22;15802;45.654;13.804;2023-04-25T06:15:41;13.80;99.90
28608;DHT22;15802;45.654;13.804;2023-04-25T06:18:06;14.00;99.90
28608;DHT22;15802;45.654;13.804;2023-04-25T06:20:32;14.00;99.90
28608;DHT22;15802;45.654;13.804;2023-04-25T06:22:58;14.20;99.90
28608;DHT22;15802;45.654;13.804;2023-04-25T06:25:23;14.30;99.90
28608;DHT22;15802;45.654;13.804;2023-04-25T06:27:49;14.40;99.90
28608;DHT22;15802;45.654;13.804;2023-04-25T06:30:15;14.50;99.90
28608;DHT22;15802;45.654;13.804;2023-04-25T06:35:22;14.60;99.90
28608;DHT22;15802;45.654;13.804;2023-04-25T06:37:47;14.70;99.90
28608;DHT22;15802;45.654;13.804;2023-04-25T06:40:13;14.70;99.90
28608;DHT22;15802;45.654;13.804;2023-04-25T06:42:40;14.80;99.90
28608;DHT22;15802;45.654;13.804;2023-04-25T06:45:05;14.90;99.90
28608;DHT22;15802;45.654;13.804;2023-04-25T06:47:34;15.00;99.90
28608;DHT22;15802;45.654;13.804;2023-04-25T06:50:00;15.00;99.90
28608;DHT22;15802;45.654;13.804;2023-04-25T06:52:26;14.90;99.90
28608;DHT22;15802;45.654;13.804;2023-04-25T06:54:52;14.80;99.90
28608;DHT22;15802;45.654;13.804;2023-04-25T06:57:20;14.70;99.90
28608;DHT22;15802;45.654;13.804;2023-04-25T06:59:51;14.70;99.90
28608;DHT22;15802;45.654;13.804;2023-04-25T07:02:17;14.70;99.90
28608;DHT22;15802;45.654;13.804;2023-04-25T07:04:43;14.60;99.90
28608;DHT22;15802;45.654;13.804;2023-04-25T07:07:10;14.60;99.90
28608;DHT22;15802;45.654;13.804;2023-04-25T07:09:36;14.50;99.90
28608;DHT22;15802;45.654;13.804;2023-04-25T07:12:02;14.40;99.90
28608;DHT22;15802;45.654;13.804;2023-04-25T07:14:28;14.20;99.90
28608;DHT22;15802;45.654;13.804;2023-04-25T07:16:53;14.00;99.90
28608;DHT22;15802;45.654;13.804;2023-04-25T07:19:21;14.00;99.90
28608;DHT22;15802;45.654;13.804;2023-04-25T07:21:49;13.90;99.90
28608;DHT22;15802;45.654;13.804;2023-04-25T07:24:18;14.00;99.90
28608;DHT22;15802;45.654;13.804;2023-04-25T07:26:44;14.00;99.90
28608;DHT22;15802;45.654;13.804;2023-04-25T07:29:10;13.90;99.90
28608;DHT22;15802;45.654;13.804;2023-04-25T07:31:35;13.90;99.90
28608;DHT22;15802;45.654;13.804;2023-04-25T07:34:01;13.80;99.90
28608;DHT22;15802;45.654;13.804;2023-04-25T07:36:27;13.80;99.90
28608;DHT22;15802;45.654;13.804;2023-04-25T07:38:53;13.70;99.90
28608;DHT22;15802;45.654;13.804;2023-04-25T07:41:19;13.60;99.90
28608;DHT22;15802;45.654;13.804;2023-04-25T07:43:44;13.50;99.90
28608;DHT22;15802;45.654;13.804;2023-04-25T07:46:10;13.60;99.90
28608;DHT22;15802;45.654;13.804;2023-04-25T07:48:36;13.50;99.90
28608;DHT22;15802;45.654;13.804;2023-04-25T07:51:02;13.50;99.90
28608;DHT22;15802;45.654;13.804;2023-04-25T07:53:29;13.50;99.90
28608;DHT22;15802;45.654;13.804;2023-04-25T07:55:55;13.50;99.90
28608;DHT22;15802;45.654;13.804;2023-04-25T07:58:21;13.50;99.90
28608;DHT22;15802;45.654;13.804;2023-04-25T08:00:47;13.50;99.90
28608;DHT22;15802;45.654;13.804;2023-04-25T08:03:13;13.50;99.90
28608;DHT22;15802;45.654;13.804;2023-04-25T08:05:42;13.50;99.90
28608;DHT22;15802;45.654;13.804;2023-04-25T08:08:10;13.60;99.90
28608;DHT22;15802;45.654;13.804;2023-04-25T08:10:53;13.50;99.90
28608;DHT22;15802;45.654;13.804;2023-04-25T08:13:19;13.50;99.90
28608;DHT22;15802;45.654;13.804;2023-04-25T08:15:48;13.50;99.90
28608;DHT22;15802;45.654;13.804;2023-04-25T08:18:14;13.50;99.90
28608;DHT22;15802;45.654;13.804;2023-04-25T08:20:39;13.50;99.90
28608;DHT22;15802;45.654;13.804;2023-04-25T08:23:08;13.50;99.90
28608;DHT22;15802;45.654;13.804;2023-04-25T08:25:36;13.50;99.90
28608;DHT22;15802;45.654;13.804;2023-04-25T08:28:09;13.40;99.90
28608;DHT22;15802;45.654;13.804;2023-04-25T08:30:41;13.50;99.90
28608;DHT22;15802;45.654;13.804;2023-04-25T08:33:07;13.30;99.90
28608;DHT22;15802;45.654;13.804;2023-04-25T08:35:33;13.20;99.90
28608;DHT22;15802;45.654;13.804;2023-04-25T08:37:58;13.20;99.90
28608;DHT22;15802;45.654;13.804;2023-04-25T08:40:26;13.20;99.90
28608;DHT22;15802;45.654;13.804;2023-04-25T08:42:54;13.20;99.90
28608;DHT22;15802;45.654;13.804;2023-04-25T08:45:21;13.20;99.90
28608;DHT22;15802;45.654;13.804;2023-04-25T08:47:46;13.20;99.90
28608;DHT22;15802;45.654;13.804;2023-04-25T08:50:16;13.20;99.90
28608;DHT22;15802;45.654;13.804;2023-04-25T08:52:44;13.20;99.90
28608;DHT22;15802;45.654;13.804;2023-04-25T08:55:12;13.30;99.90
28608;DHT22;15802;45.654;13.804;2023-04-25T08:57:38;13.30;99.90
28608;DHT22;15802;45.654;13.804;2023-04-25T09:00:03;13.20;99.90
28608;DHT22;15802;45.654;13.804;2023-04-25T09:02:29;13.30;99.90
28608;DHT22;15802;45.654;13.804;2023-04-25T09:04:55;13.30;99.90
28608;DHT22;15802;45.654;13.804;2023-04-25T09:07:21;13.20;99.90
28608;DHT22;15802;45.654;13.804;2023-04-25T09:10:07;13.20;99.90
28608;DHT22;15802;45.654;13.804;2023-04-25T09:12:33;13.30;99.90
28608;DHT22;15802;45.654;13.804;2023-04-25T09:15:03;13.20;99.90
28608;DHT22;15802;45.654;13.804;2023-04-25T09:17:30;13.20;99.90
28608;DHT22;15802;45.654;13.804;2023-04-25T09:20:05;13.00;99.90
28608;DHT22;15802;45.654;13.804;2023-04-25T09:22:31;12.90;99.90
28608;DHT22;15802;45.654;13.804;2023-04-25T09:24:57;12.80;99.90
28608;DHT22;15802;45.654;13.804;2023-04-25T09:27:26;12.80;99.90
28608;DHT22;15802;45.654;13.804;2023-04-25T09:29:57;12.80;99.90
28608;DHT22;15802;45.654;13.804;2023-04-25T09:32:23;12.80;99.90
28608;DHT22;15802;45.654;13.804;2023-04-25T09:34:50;12.80;99.90
28608;DHT22;15802;45.654;13.804;2023-04-25T09:37:19;12.80;99.90
28608;DHT22;15802;45.654;13.804;2023-04-25T09:39:47;12.80;99.90
28608;DHT22;15802;45.654;13.804;2023-04-25T09:42:13;12.80;99.90
28608;DHT22;15802;45.654;13.804;2023-04-25T09:44:44;12.70;99.90
28608;DHT22;15802;45.654;13.804;2023-04-25T09:47:11;12.70;99.90
28608;DHT22;15802;45.654;13.804;2023-04-25T09:49:39;12.80;99.90
28608;DHT22;15802;45.654;13.804;2023-04-25T09:52:05;12.80;99.90
28608;DHT22;15802;45.654;13.804;2023-04-25T09:54:31;12.70;99.90
28608;DHT22;15802;45.654;13.804;2023-04-25T09:56:56;12.80;99.90
28608;DHT22;15802;45.654;13.804;2023-04-25T09:59:23;12.90;99.90
28608;DHT22;15802;45.654;13.804;2023-04-25T10:01:49;12.90;99.90
28608;DHT22;15802;45.654;13.804;2023-04-25T10:04:19;12.90;99.90
28608;DHT22;15802;45.654;13.804;2023-04-25T10:06:45;13.00;99.90
28608;DHT22;15802;45.654;13.804;2023-04-25T10:09:12;13.10;99.90
28608;DHT22;15802;45.654;13.804;2023-04-25T10:11:39;13.20;99.90
28608;DHT22;15802;45.654;13.804;2023-04-25T10:14:06;13.30;99.90
28608;DHT22;15802;45.654;13.804;2023-04-25T10:16:34;13.30;99.90
28608;DHT22;15802;45.654;13.804;2023-04-25T10:19:00;13.30;99.90
28608;DHT22;15802;45.654;13.804;2023-04-25T10:21:27;13.30;99.90
28608;DHT22;15802;45.654;13.804;2023-04-25T10:23:53;13.30;99.90
28608;DHT22;15802;45.654;13.804;2023-04-25T10:26:19;13.30;99.90
28608;DHT22;15802;45.654;13.804;2023-04-25T10:28:55;13.30;99.90
28608;DHT22;15802;45.654;13.804;2023-04-25T10:31:21;13.30;99.90
28608;DHT22;15802;45.654;13.804;2023-04-25T10:33:47;13.30;99.90
28608;DHT22;15802;45.654;13.804;2023-04-25T10:36:14;13.40;99.90
28608;DHT22;15802;45.654;13.804;2023-04-25T10:38:42;13.40;99.90
28608;DHT22;15802;45.654;13.804;2023-04-25T10:41:11;13.40;99.90
28608;DHT22;15802;45.654;13.804;2023-04-25T10:43:37;13.40;99.90
28608;DHT22;15802;45.654;13.804;2023-04-25T10:48:49;13.50;99.90
28608;DHT22;15802;45.654;13.804;2023-04-25T10:51:16;13.40;99.90
28608;DHT22;15802;45.654;13.804;2023-04-25T10:53:44;13.40;99.90
28608;DHT22;15802;45.654;13.804;2023-04-25T10:56:11;13.40;99.90
28608;DHT22;15802;45.654;13.804;2023-04-25T10:58:41;13.30;99.90
28608;DHT22;15802;45.654;13.804;2023-04-25T11:01:07;13.40;99.90
28608;DHT22;15802;45.654;13.804;2023-04-25T11:03:32;13.30;99.90
28608;DHT22;15802;45.654;13.804;2023-04-25T11:06:03;13.20;99.90
28608;DHT22;15802;45.654;13.804;2023-04-25T11:08:36;13.20;99.90
28608;DHT22;15802;45.654;13.804;2023-04-25T11:11:06;13.20;99.90
28608;DHT22;15802;45.654;13.804;2023-04-25T11:13:33;13.10;99.90
28608;DHT22;15802;45.654;13.804;2023-04-25T11:15:59;13.20;99.90
28608;DHT22;15802;45.654;13.804;2023-04-25T11:18:26;13.20;99.90
28608;DHT22;15802;45.654;13.804;2023-04-25T11:20:51;13.40;99.90
28608;DHT22;15802;45.654;13.804;2023-04-25T11:23:17;13.40;99.90
28608;DHT22;15802;45.654;13.804;2023-04-25T11:25:45;13.50;99.90
28608;DHT22;15802;45.654;13.804;2023-04-25T11:28:20;13.50;99.90
28608;DHT22;15802;45.654;13.804;2023-04-25T11:30:48;13.50;99.90
28608;DHT22;15802;45.654;13.804;2023-04-25T11:33:18;13.40;99.90
28608;DHT22;15802;45.654;13.804;2023-04-25T11:35:53;13.40;99.90
28608;DHT22;15802;45.654;13.804;2023-04-25T11:38:23;13.30;99.90
28608;DHT22;15802;45.654;13.804;2023-04-25T11:40:52;13.20;99.90
28608;DHT22;15802;45.654;13.804;2023-04-25T11:43:20;13.20;99.90
28608;DHT22;15802;45.654;13.804;2023-04-25T11:45:47;13.10;99.90
28608;DHT22;15802;45.654;13.804;2023-04-25T11:48:13;13.10;99.90
28608;DHT22;15802;45.654;13.804;2023-04-25T11:50:39;13.00;99.90
28608;DHT22;15802;45.654;13.804;2023-04-25T11:53:05;12.90;99.90
28608;DHT22;15802;45.654;13.804;2023-04-25T11:55:31;12.80;99.90
28608;DHT22;15802;45.654;13.804;2023-04-25T11:57:58;12.80;99.90
28608;DHT22;15802;45.654;13.804;2023-04-25T12:00:25;12.80;99.90
28608;DHT22;15802;45.654;13.804;2023-04-25T12:02:53;12.70;99.90
28608;DHT22;15802;45.654;13.804;2023-04-25T12:05:19;12.60;99.90
28608;DHT22;15802;45.654;13.804;2023-04-25T12:07:47;12.60;99.90
28608;DHT22;15802;45.654;13.804;2023-04-25T12:10:14;12.60;99.90
28608;DHT22;15802;45.654;13.804;2023-04-25T12:12:41;12.50;99.90
28608;DHT22;15802;45.654;13.804;2023-04-25T12:17:52;12.50;99.90
28608;DHT22;15802;45.654;13.804;2023-04-25T12:20:19;12.40;99.90
28608;DHT22;15802;45.654;13.804;2023-04-25T12:22:46;12.40;99.90
28608;DHT22;15802;45.654;13.804;2023-04-25T12:28:08;12.40;99.90
28608;DHT22;15802;45.654;13.804;2023-04-25T12:33:20;12.40;99.90
28608;DHT22;15802;45.654;13.804;2023-04-25T12:35:47;12.40;99.90
28608;DHT22;15802;45.654;13.804;2023-04-25T12:41:06;12.50;99.90
28608;DHT22;15802;45.654;13.804;2023-04-25T12:43:32;12.60;99.90
28608;DHT22;15802;45.654;13.804;2023-04-25T12:45:58;12.70;99.90
28608;DHT22;15802;45.654;13.804;2023-04-25T12:48:24;12.80;99.90
28608;DHT22;15802;45.654;13.804;2023-04-25T12:50:50;12.80;99.90
28608;DHT22;15802;45.654;13.804;2023-04-25T12:53:17;12.80;99.90
28608;DHT22;15802;45.654;13.804;2023-04-25T12:55:43;12.90;99.90
28608;DHT22;15802;45.654;13.804;2023-04-25T12:58:11;12.90;99.90
28608;DHT22;15802;45.654;13.804;2023-04-25T13:00:37;12.80;99.90
28608;DHT22;15802;45.654;13.804;2023-04-25T13:03:03;12.80;99.90
28608;DHT22;15802;45.654;13.804;2023-04-25T13:05:30;12.90;99.90
28608;DHT22;15802;45.654;13.804;2023-04-25T13:07:56;12.90;99.90
28608;DHT22;15802;45.654;13.804;2023-04-25T13:10:22;12.90;99.90
28608;DHT22;15802;45.654;13.804;2023-04-25T13:12:47;13.00;99.90
28608;DHT22;15802;45.654;13.804;2023-04-25T13:15:13;13.00;99.90
28608;DHT22;15802;45.654;13.804;2023-04-25T13:17:41;13.00;99.90
28608;DHT22;15802;45.654;13.804;2023-04-25T13:20:07;13.20;99.90
28608;DHT22;15802;45.654;13.804;2023-04-25T13:22:35;13.30;99.90
28608;DHT22;15802;45.654;13.804;2023-04-25T13:25:02;13.40;99.90
28608;DHT22;15802;45.654;13.804;2023-04-25T13:27:28;13.60;99.90
28608;DHT22;15802;45.654;13.804;2023-04-25T13:29:54;13.70;99.90
28608;DHT22;15802;45.654;13.804;2023-04-25T13:32:20;13.80;99.90
28608;DHT22;15802;45.654;13.804;2023-04-25T13:34:45;13.90;99.90
28608;DHT22;15802;45.654;13.804;2023-04-25T13:37:11;13.90;99.90
28608;DHT22;15802;45.654;13.804;2023-04-25T13:39:37;14.00;99.90
28608;DHT22;15802;45.654;13.804;2023-04-25T13:42:03;14.10;99.90
28608;DHT22;15802;45.654;13.804;2023-04-25T13:44:28;14.20;99.90
28608;DHT22;15802;45.654;13.804;2023-04-25T13:46:58;14.30;99.90
28608;DHT22;15802;45.654;13.804;2023-04-25T13:49:26;14.40;99.90
28608;DHT22;15802;45.654;13.804;2023-04-25T13:51:54;14.40;99.90
28608;DHT22;15802;45.654;13.804;2023-04-25T13:54:20;14.50;99.90
28608;DHT22;15802;45.654;13.804;2023-04-25T13:56:46;14.50;99.90
28608;DHT22;15802;45.654;13.804;2023-04-25T13:59:12;14.50;99.90
28608;DHT22;15802;45.654;13.804;2023-04-25T14:01:37;14.50;99.90
28608;DHT22;15802;45.654;13.804;2023-04-25T14:04:04;14.60;99.90
28608;DHT22;15802;45.654;13.804;2023-04-25T14:06:31;14.60;99.90
28608;DHT22;15802;45.654;13.804;2023-04-25T14:08:57;14.60;99.90
28608;DHT22;15802;45.654;13.804;2023-04-25T14:11:23;14.50;99.90
28608;DHT22;15802;45.654;13.804;2023-04-25T14:13:49;14.50;99.90
28608;DHT22;15802;45.654;13.804;2023-04-25T14:16:15;14.50;99.90
28608;DHT22;15802;45.654;13.804;2023-04-25T14:18:41;14.60;99.90
28608;DHT22;15802;45.654;13.804;2023-04-25T14:21:07;14.60;99.90
28608;DHT22;15802;45.654;13.804;2023-04-25T14:23:33;14.50;99.90
28608;DHT22;15802;45.654;13.804;2023-04-25T14:25:58;14.50;99.90
28608;DHT22;15802;45.654;13.804;2023-04-25T14:28:24;14.60;99.90
28608;DHT22;15802;45.654;13.804;2023-04-25T14:30:50;14.70;99.90
28608;DHT22;15802;45.654;13.804;2023-04-25T14:33:16;14.70;99.90
28608;DHT22;15802;45.654;13.804;2023-04-25T14:35:41;14.50;99.90
28608;DHT22;15802;45.654;13.804;2023-04-25T14:38:07;14.50;99.90
28608;DHT22;15802;45.654;13.804;2023-04-25T14:40:33;14.60;99.90
28608;DHT22;15802;45.654;13.804;2023-04-25T14:42:59;14.60;99.90
28608;DHT22;15802;45.654;13.804;2023-04-25T14:45:25;14.80;99.90
28608;DHT22;15802;45.654;13.804;2023-04-25T14:47:51;15.20;99.90
28608;DHT22;15802;45.654;13.804;2023-04-25T14:50:16;15.50;99.90
28608;DHT22;15802;45.654;13.804;2023-04-25T14:52:42;15.90;99.90
28608;DHT22;15802;45.654;13.804;2023-04-25T14:55:09;16.10;99.90
28608;DHT22;15802;45.654;13.804;2023-04-25T14:57:35;16.10;99.90
28608;DHT22;15802;45.654;13.804;2023-04-25T15:00:03;16.10;99.90
28608;DHT22;15802;45.654;13.804;2023-04-25T15:02:32;16.50;99.90
28608;DHT22;15802;45.654;13.804;2023-04-25T15:04:58;16.70;99.90
28608;DHT22;15802;45.654;13.804;2023-04-25T15:07:23;17.00;99.90
28608;DHT22;15802;45.654;13.804;2023-04-25T15:09:50;17.20;99.90
28608;DHT22;15802;45.654;13.804;2023-04-25T15:12:19;17.40;99.90
28608;DHT22;15802;45.654;13.804;2023-04-25T15:14:45;17.40;99.90
28608;DHT22;15802;45.654;13.804;2023-04-25T15:17:13;17.80;99.90
28608;DHT22;15802;45.654;13.804;2023-04-25T15:19:40;18.10;99.90
28608;DHT22;15802;45.654;13.804;2023-04-25T15:22:05;18.00;99.90
28608;DHT22;15802;45.654;13.804;2023-04-25T15:24:32;18.00;99.90
28608;DHT22;15802;45.654;13.804;2023-04-25T15:26:58;17.90;99.90
28608;DHT22;15802;45.654;13.804;2023-04-25T15:29:23;17.90;99.90